Fountain City, Indiana
Current Conditions -  °F | °C
As of 6:15 AM on Thursday 23 Oct 2014 (Local Time) from KVES Reporting Station
Haze Haze  
Wind Chill:   Ceiling: 700
Heat Index:   Visibility: 1.7mi
Dew Point:   Wind: 3mph
Humidity: 100%   Direction: 350°N
Pressure: 30.24"   Gusts: NA
Location:  39.96°N, 84.92°W
Report Text: KVES 231015Z AUTO 35003KT 1 3/4SM BR VV007 02/02 A3024 RMK AO2
Loading
Personal Weather Stations






























Interactive Weather Map
Tropical Storm Tracking
New forecast layout! Learn more

10-Day Weather Forecast

Advertisements
Track Severe Weather on mobile